sensor_id;sensor_type;location;lat;lon;timestamp;P1;durP1;ratioP1;P2;durP2;ratioP2
2650;SDS011;1335;48.180;16.342;2023-10-13T00:01:45;6.30;;;5.63;;
2650;SDS011;1335;48.180;16.342;2023-10-13T00:04:13;7.10;;;5.47;;
2650;SDS011;1335;48.180;16.342;2023-10-13T00:06:40;10.13;;;6.20;;
2650;SDS011;1335;48.180;16.342;2023-10-13T00:09:10;8.00;;;5.43;;
2650;SDS011;1335;48.180;16.342;2023-10-13T00:11:41;10.60;;;6.90;;
2650;SDS011;1335;48.180;16.342;2023-10-13T00:14:10;9.77;;;5.80;;
2650;SDS011;1335;48.180;16.342;2023-10-13T00:16:41;12.07;;;7.13;;
2650;SDS011;1335;48.180;16.342;2023-10-13T00:19:08;8.80;;;6.27;;
2650;SDS011;1335;48.180;16.342;2023-10-13T00:21:38;10.23;;;6.73;;
2650;SDS011;1335;48.180;16.342;2023-10-13T00:24:07;7.70;;;6.80;;
2650;SDS011;1335;48.180;16.342;2023-10-13T00:26:40;7.40;;;5.93;;
2650;SDS011;1335;48.180;16.342;2023-10-13T00:29:08;6.67;;;6.00;;
2650;SDS011;1335;48.180;16.342;2023-10-13T00:31:41;9.07;;;6.90;;
2650;SDS011;1335;48.180;16.342;2023-10-13T00:34:08;8.33;;;6.50;;
2650;SDS011;1335;48.180;16.342;2023-10-13T00:36:43;8.40;;;6.63;;
2650;SDS011;1335;48.180;16.342;2023-10-13T00:39:13;7.10;;;6.40;;
2650;SDS011;1335;48.180;16.342;2023-10-13T00:41:43;9.80;;;6.53;;
2650;SDS011;1335;48.180;16.342;2023-10-13T00:44:17;6.30;;;5.70;;
2650;SDS011;1335;48.180;16.342;2023-10-13T00:46:51;9.37;;;7.10;;
2650;SDS011;1335;48.180;16.342;2023-10-13T00:49:22;8.90;;;7.00;;
2650;SDS011;1335;48.180;16.342;2023-10-13T00:51:48;8.37;;;6.17;;
2650;SDS011;1335;48.180;16.342;2023-10-13T00:54:16;10.03;;;6.47;;
2650;SDS011;1335;48.180;16.342;2023-10-13T00:56:45;7.37;;;6.67;;
2650;SDS011;1335;48.180;16.342;2023-10-13T00:59:14;11.63;;;6.60;;
2650;SDS011;1335;48.180;16.342;2023-10-13T01:01:40;10.50;;;7.20;;
2650;SDS011;1335;48.180;16.342;2023-10-13T01:04:09;10.57;;;6.70;;
2650;SDS011;1335;48.180;16.342;2023-10-13T01:06:37;8.93;;;6.80;;
2650;SDS011;1335;48.180;16.342;2023-10-13T01:09:06;7.93;;;6.10;;
2650;SDS011;1335;48.180;16.342;2023-10-13T01:11:39;7.73;;;6.00;;
2650;SDS011;1335;48.180;16.342;2023-10-13T01:14:09;11.07;;;5.80;;
2650;SDS011;1335;48.180;16.342;2023-10-13T01:16:36;6.27;;;5.77;;
2650;SDS011;1335;48.180;16.342;2023-10-13T01:19:08;9.50;;;6.37;;
2650;SDS011;1335;48.180;16.342;2023-10-13T01:21:37;9.43;;;5.80;;
2650;SDS011;1335;48.180;16.342;2023-10-13T01:24:07;9.73;;;6.70;;
2650;SDS011;1335;48.180;16.342;2023-10-13T01:26:34;9.43;;;6.73;;
2650;SDS011;1335;48.180;16.342;2023-10-13T01:29:04;8.13;;;6.20;;
2650;SDS011;1335;48.180;16.342;2023-10-13T01:31:39;9.10;;;6.37;;
2650;SDS011;1335;48.180;16.342;2023-10-13T01:34:12;9.17;;;7.50;;
2650;SDS011;1335;48.180;16.342;2023-10-13T01:36:38;9.50;;;7.50;;
2650;SDS011;1335;48.180;16.342;2023-10-13T01:39:08;9.67;;;8.00;;
2650;SDS011;1335;48.180;16.342;2023-10-13T01:41:41;7.53;;;6.43;;
2650;SDS011;1335;48.180;16.342;2023-10-13T01:44:09;13.50;;;8.83;;
2650;SDS011;1335;48.180;16.342;2023-10-13T01:46:36;10.37;;;6.80;;
2650;SDS011;1335;48.180;16.342;2023-10-13T01:49:04;8.60;;;6.60;;
2650;SDS011;1335;48.180;16.342;2023-10-13T01:51:30;11.70;;;6.33;;
2650;SDS011;1335;48.180;16.342;2023-10-13T01:53:58;7.87;;;6.50;;
2650;SDS011;1335;48.180;16.342;2023-10-13T01:56:29;6.67;;;5.97;;
2650;SDS011;1335;48.180;16.342;2023-10-13T01:58:56;5.80;;;5.30;;
2650;SDS011;1335;48.180;16.342;2023-10-13T02:01:23;7.33;;;5.87;;
2650;SDS011;1335;48.180;16.342;2023-10-13T02:03:54;8.63;;;5.93;;
2650;SDS011;1335;48.180;16.342;2023-10-13T02:06:27;10.40;;;6.57;;
2650;SDS011;1335;48.180;16.342;2023-10-13T02:08:58;9.03;;;5.90;;
2650;SDS011;1335;48.180;16.342;2023-10-13T02:11:31;6.53;;;5.93;;
2650;SDS011;1335;48.180;16.342;2023-10-13T02:13:59;7.80;;;5.83;;
2650;SDS011;1335;48.180;16.342;2023-10-13T02:16:25;7.73;;;5.70;;
2650;SDS011;1335;48.180;16.342;2023-10-13T02:18:56;5.83;;;5.10;;
2650;SDS011;1335;48.180;16.342;2023-10-13T02:21:23;8.50;;;5.60;;
2650;SDS011;1335;48.180;16.342;2023-10-13T02:23:56;7.30;;;5.77;;
2650;SDS011;1335;48.180;16.342;2023-10-13T02:26:29;6.10;;;5.50;;
2650;SDS011;1335;48.180;16.342;2023-10-13T02:28:59;9.87;;;6.30;;
2650;SDS011;1335;48.180;16.342;2023-10-13T02:31:28;7.17;;;6.47;;
2650;SDS011;1335;48.180;16.342;2023-10-13T02:33:54;10.10;;;6.53;;
2650;SDS011;1335;48.180;16.342;2023-10-13T02:36:22;7.00;;;6.30;;
2650;SDS011;1335;48.180;16.342;2023-10-13T02:39:01;8.30;;;6.37;;
2650;SDS011;1335;48.180;16.342;2023-10-13T02:41:32;8.60;;;7.47;;
2650;SDS011;1335;48.180;16.342;2023-10-13T02:44:04;8.20;;;6.57;;
2650;SDS011;1335;48.180;16.342;2023-10-13T02:46:33;8.73;;;6.03;;
2650;SDS011;1335;48.180;16.342;2023-10-13T02:49:01;7.73;;;6.90;;
2650;SDS011;1335;48.180;16.342;2023-10-13T02:51:35;7.50;;;6.70;;
2650;SDS011;1335;48.180;16.342;2023-10-13T02:54:01;9.20;;;7.00;;
2650;SDS011;1335;48.180;16.342;2023-10-13T02:56:34;8.50;;;6.97;;
2650;SDS011;1335;48.180;16.342;2023-10-13T02:59:01;13.10;;;6.70;;
2650;SDS011;1335;48.180;16.342;2023-10-13T03:01:32;7.60;;;6.90;;
2650;SDS011;1335;48.180;16.342;2023-10-13T03:04:00;8.03;;;7.20;;
2650;SDS011;1335;48.180;16.342;2023-10-13T03:06:28;7.60;;;6.03;;
2650;SDS011;1335;48.180;16.342;2023-10-13T03:08:58;7.40;;;6.70;;
2650;SDS011;1335;48.180;16.342;2023-10-13T03:11:38;8.83;;;6.00;;
2650;SDS011;1335;48.180;16.342;2023-10-13T03:14:07;9.63;;;7.27;;
2650;SDS011;1335;48.180;16.342;2023-10-13T03:16:35;8.53;;;6.57;;
2650;SDS011;1335;48.180;16.342;2023-10-13T03:19:02;7.83;;;6.43;;
2650;SDS011;1335;48.180;16.342;2023-10-13T03:21:32;9.30;;;5.83;;
2650;SDS011;1335;48.180;16.342;2023-10-13T03:24:02;7.00;;;6.17;;
2650;SDS011;1335;48.180;16.342;2023-10-13T03:26:31;6.87;;;6.27;;
2650;SDS011;1335;48.180;16.342;2023-10-13T03:29:09;11.77;;;6.10;;
2650;SDS011;1335;48.180;16.342;2023-10-13T03:31:40;8.07;;;6.17;;
2650;SDS011;1335;48.180;16.342;2023-10-13T03:34:10;8.57;;;6.00;;
2650;SDS011;1335;48.180;16.342;2023-10-13T03:36:38;6.53;;;5.57;;
2650;SDS011;1335;48.180;16.342;2023-10-13T03:39:23;12.37;;;7.00;;
2650;SDS011;1335;48.180;16.342;2023-10-13T03:41:56;6.80;;;6.00;;
2650;SDS011;1335;48.180;16.342;2023-10-13T03:44:24;7.47;;;5.43;;
2650;SDS011;1335;48.180;16.342;2023-10-13T03:46:58;6.40;;;5.40;;
2650;SDS011;1335;48.180;16.342;2023-10-13T03:49:43;7.70;;;5.73;;
2650;SDS011;1335;48.180;16.342;2023-10-13T03:52:10;7.17;;;6.47;;
2650;SDS011;1335;48.180;16.342;2023-10-13T03:54:38;7.40;;;5.77;;
2650;SDS011;1335;48.180;16.342;2023-10-13T03:57:06;6.93;;;5.40;;
2650;SDS011;1335;48.180;16.342;2023-10-13T03:59:36;11.13;;;7.10;;
2650;SDS011;1335;48.180;16.342;2023-10-13T04:02:06;9.67;;;7.53;;
2650;SDS011;1335;48.180;16.342;2023-10-13T04:04:43;8.50;;;7.10;;
2650;SDS011;1335;48.180;16.342;2023-10-13T04:07:14;9.63;;;6.17;;
2650;SDS011;1335;48.180;16.342;2023-10-13T04:09:59;7.70;;;6.90;;
2650;SDS011;1335;48.180;16.342;2023-10-13T04:12:57;8.00;;;6.40;;
2650;SDS011;1335;48.180;16.342;2023-10-13T04:15:42;7.47;;;6.70;;
2650;SDS011;1335;48.180;16.342;2023-10-13T04:18:29;6.60;;;5.93;;
2650;SDS011;1335;48.180;16.342;2023-10-13T04:21:12;6.30;;;5.80;;
2650;SDS011;1335;48.180;16.342;2023-10-13T04:24:05;8.73;;;6.40;;
2650;SDS011;1335;48.180;16.342;2023-10-13T04:26:48;8.97;;;6.27;;
2650;SDS011;1335;48.180;16.342;2023-10-13T04:29:43;7.03;;;5.97;;
2650;SDS011;1335;48.180;16.342;2023-10-13T04:32:35;7.60;;;6.47;;
2650;SDS011;1335;48.180;16.342;2023-10-13T04:35:12;10.47;;;6.97;;
2650;SDS011;1335;48.180;16.342;2023-10-13T04:37:43;7.80;;;6.70;;
2650;SDS011;1335;48.180;16.342;2023-10-13T04:40:20;7.50;;;6.50;;
2650;SDS011;1335;48.180;16.342;2023-10-13T04:42:49;8.47;;;6.60;;
2650;SDS011;1335;48.180;16.342;2023-10-13T04:45:19;9.20;;;7.27;;
2650;SDS011;1335;48.180;16.342;2023-10-13T04:48:04;10.10;;;7.23;;
2650;SDS011;1335;48.180;16.342;2023-10-13T04:50:58;10.03;;;6.50;;
2650;SDS011;1335;48.180;16.342;2023-10-13T04:53:45;8.90;;;7.97;;
2650;SDS011;1335;48.180;16.342;2023-10-13T04:56:26;10.77;;;6.73;;
2650;SDS011;1335;48.180;16.342;2023-10-13T04:59:10;9.90;;;7.17;;
2650;SDS011;1335;48.180;16.342;2023-10-13T05:02:00;7.40;;;6.70;;
2650;SDS011;1335;48.180;16.342;2023-10-13T05:04:41;10.27;;;7.07;;
2650;SDS011;1335;48.180;16.342;2023-10-13T05:07:48;8.97;;;7.67;;
2650;SDS011;1335;48.180;16.342;2023-10-13T05:10:34;9.80;;;7.43;;
2650;SDS011;1335;48.180;16.342;2023-10-13T05:13:19;8.00;;;7.00;;
2650;SDS011;1335;48.180;16.342;2023-10-13T05:16:03;7.57;;;6.80;;
2650;SDS011;1335;48.180;16.342;2023-10-13T05:18:48;9.27;;;7.40;;
2650;SDS011;1335;48.180;16.342;2023-10-13T05:21:34;9.40;;;6.90;;
2650;SDS011;1335;48.180;16.342;2023-10-13T05:24:20;7.70;;;6.87;;
2650;SDS011;1335;48.180;16.342;2023-10-13T05:27:05;7.90;;;6.20;;
2650;SDS011;1335;48.180;16.342;2023-10-13T05:29:47;11.27;;;6.67;;
2650;SDS011;1335;48.180;16.342;2023-10-13T05:32:32;7.10;;;6.17;;
2650;SDS011;1335;48.180;16.342;2023-10-13T05:35:18;8.73;;;6.13;;
2650;SDS011;1335;48.180;16.342;2023-10-13T05:38:03;13.30;;;5.90;;
2650;SDS011;1335;48.180;16.342;2023-10-13T05:40:58;7.77;;;6.60;;
2650;SDS011;1335;48.180;16.342;2023-10-13T05:43:43;7.53;;;5.73;;
2650;SDS011;1335;48.180;16.342;2023-10-13T05:46:28;8.27;;;6.63;;
2650;SDS011;1335;48.180;16.342;2023-10-13T05:49:25;7.10;;;5.67;;
2650;SDS011;1335;48.180;16.342;2023-10-13T05:52:15;7.03;;;5.43;;
2650;SDS011;1335;48.180;16.342;2023-10-13T05:55:05;9.20;;;5.97;;
2650;SDS011;1335;48.180;16.342;2023-10-13T05:57:51;8.30;;;6.60;;
2650;SDS011;1335;48.180;16.342;2023-10-13T06:00:40;6.20;;;5.27;;
2650;SDS011;1335;48.180;16.342;2023-10-13T06:03:24;7.87;;;6.00;;
2650;SDS011;1335;48.180;16.342;2023-10-13T06:06:09;8.03;;;5.57;;
2650;SDS011;1335;48.180;16.342;2023-10-13T06:08:54;7.03;;;5.53;;
2650;SDS011;1335;48.180;16.342;2023-10-13T06:11:39;7.23;;;5.27;;
2650;SDS011;1335;48.180;16.342;2023-10-13T06:14:25;7.30;;;5.90;;
2650;SDS011;1335;48.180;16.342;2023-10-13T06:17:10;6.73;;;5.37;;
2650;SDS011;1335;48.180;16.342;2023-10-13T06:19:54;9.90;;;6.27;;
2650;SDS011;1335;48.180;16.342;2023-10-13T06:22:39;7.20;;;5.40;;
2650;SDS011;1335;48.180;16.342;2023-10-13T06:25:24;7.57;;;5.90;;
2650;SDS011;1335;48.180;16.342;2023-10-13T06:28:08;7.23;;;6.57;;
2650;SDS011;1335;48.180;16.342;2023-10-13T06:30:55;8.60;;;6.43;;
2650;SDS011;1335;48.180;16.342;2023-10-13T06:33:23;8.63;;;5.90;;
2650;SDS011;1335;48.180;16.342;2023-10-13T06:35:54;11.00;;;6.57;;
2650;SDS011;1335;48.180;16.342;2023-10-13T06:38:22;9.00;;;6.20;;
2650;SDS011;1335;48.180;16.342;2023-10-13T06:40:49;9.40;;;7.60;;
2650;SDS011;1335;48.180;16.342;2023-10-13T06:43:17;8.50;;;7.30;;
2650;SDS011;1335;48.180;16.342;2023-10-13T06:45:47;9.13;;;7.77;;
2650;SDS011;1335;48.180;16.342;2023-10-13T06:48:23;10.10;;;7.90;;
2650;SDS011;1335;48.180;16.342;2023-10-13T06:50:51;9.67;;;7.40;;
2650;SDS011;1335;48.180;16.342;2023-10-13T06:53:20;11.73;;;8.63;;
2650;SDS011;1335;48.180;16.342;2023-10-13T06:55:49;9.40;;;7.20;;
2650;SDS011;1335;48.180;16.342;2023-10-13T06:58:18;13.17;;;6.87;;
2650;SDS011;1335;48.180;16.342;2023-10-13T07:00:49;17.50;;;6.30;;
2650;SDS011;1335;48.180;16.342;2023-10-13T07:03:19;8.70;;;7.70;;
2650;SDS011;1335;48.180;16.342;2023-10-13T07:05:48;8.17;;;6.17;;
2650;SDS011;1335;48.180;16.342;2023-10-13T07:08:16;8.60;;;7.17;;
2650;SDS011;1335;48.180;16.342;2023-10-13T07:10:48;7.73;;;5.90;;
2650;SDS011;1335;48.180;16.342;2023-10-13T07:13:26;10.53;;;6.70;;
2650;SDS011;1335;48.180;16.342;2023-10-13T07:15:54;7.07;;;5.93;;
2650;SDS011;1335;48.180;16.342;2023-10-13T07:18:30;10.47;;;6.30;;
2650;SDS011;1335;48.180;16.342;2023-10-13T07:21:04;7.33;;;5.93;;
2650;SDS011;1335;48.180;16.342;2023-10-13T07:23:36;9.30;;;6.20;;
2650;SDS011;1335;48.180;16.342;2023-10-13T07:26:04;8.40;;;5.70;;
2650;SDS011;1335;48.180;16.342;2023-10-13T07:28:33;8.23;;;5.50;;
2650;SDS011;1335;48.180;16.342;2023-10-13T07:31:08;6.77;;;5.50;;
2650;SDS011;1335;48.180;16.342;2023-10-13T07:33:38;6.67;;;4.83;;
2650;SDS011;1335;48.180;16.342;2023-10-13T07:36:08;7.27;;;6.23;;
2650;SDS011;1335;48.180;16.342;2023-10-13T07:38:40;7.90;;;5.30;;
2650;SDS011;1335;48.180;16.342;2023-10-13T07:41:12;6.63;;;5.07;;
2650;SDS011;1335;48.180;16.342;2023-10-13T07:43:41;11.00;;;5.27;;
2650;SDS011;1335;48.180;16.342;2023-10-13T07:46:10;6.73;;;5.03;;
2650;SDS011;1335;48.180;16.342;2023-10-13T07:48:37;10.77;;;5.30;;
2650;SDS011;1335;48.180;16.342;2023-10-13T07:51:06;8.00;;;4.57;;
2650;SDS011;1335;48.180;16.342;2023-10-13T07:53:39;7.40;;;4.83;;
2650;SDS011;1335;48.180;16.342;2023-10-13T07:56:07;12.27;;;6.83;;
2650;SDS011;1335;48.180;16.342;2023-10-13T07:58:36;10.23;;;6.27;;
2650;SDS011;1335;48.180;16.342;2023-10-13T08:01:13;7.00;;;5.63;;
2650;SDS011;1335;48.180;16.342;2023-10-13T08:03:43;6.77;;;5.17;;
2650;SDS011;1335;48.180;16.342;2023-10-13T08:06:12;6.67;;;5.10;;
2650;SDS011;1335;48.180;16.342;2023-10-13T08:08:46;7.60;;;5.40;;
2650;SDS011;1335;48.180;16.342;2023-10-13T08:11:18;5.10;;;4.60;;
2650;SDS011;1335;48.180;16.342;2023-10-13T08:13:56;5.90;;;4.83;;
2650;SDS011;1335;48.180;16.342;2023-10-13T08:16:25;6.17;;;4.77;;
2650;SDS011;1335;48.180;16.342;2023-10-13T08:19:10;7.87;;;4.50;;
2650;SDS011;1335;48.180;16.342;2023-10-13T08:21:40;5.20;;;4.70;;
2650;SDS011;1335;48.180;16.342;2023-10-13T08:24:15;5.80;;;4.40;;
2650;SDS011;1335;48.180;16.342;2023-10-13T08:26:50;6.67;;;4.60;;
2650;SDS011;1335;48.180;16.342;2023-10-13T08:29:40;7.20;;;5.27;;
2650;SDS011;1335;48.180;16.342;2023-10-13T08:32:39;8.17;;;5.90;;
2650;SDS011;1335;48.180;16.342;2023-10-13T08:35:22;9.37;;;6.50;;
2650;SDS011;1335;48.180;16.342;2023-10-13T08:37:59;7.63;;;5.00;;
2650;SDS011;1335;48.180;16.342;2023-10-13T08:40:31;6.50;;;4.93;;
2650;SDS011;1335;48.180;16.342;2023-10-13T08:43:12;10.87;;;4.50;;
2650;SDS011;1335;48.180;16.342;2023-10-13T08:45:42;4.73;;;4.23;;
2650;SDS011;1335;48.180;16.342;2023-10-13T08:48:25;10.87;;;4.30;;
2650;SDS011;1335;48.180;16.342;2023-10-13T08:50:57;6.33;;;4.50;;
2650;SDS011;1335;48.180;16.342;2023-10-13T08:53:38;4.97;;;4.40;;
2650;SDS011;1335;48.180;16.342;2023-10-13T08:56:18;6.40;;;4.57;;
2650;SDS011;1335;48.180;16.342;2023-10-13T08:58:59;5.40;;;4.00;;
2650;SDS011;1335;48.180;16.342;2023-10-13T09:01:31;6.97;;;3.50;;
2650;SDS011;1335;48.180;16.342;2023-10-13T09:04:11;6.40;;;4.03;;
2650;SDS011;1335;48.180;16.342;2023-10-13T09:06:47;4.77;;;3.93;;
2650;SDS011;1335;48.180;16.342;2023-10-13T09:09:26;7.77;;;4.80;;
2650;SDS011;1335;48.180;16.342;2023-10-13T09:11:54;8.67;;;3.70;;
2650;SDS011;1335;48.180;16.342;2023-10-13T09:14:33;5.73;;;4.03;;
2650;SDS011;1335;48.180;16.342;2023-10-13T09:17:02;5.73;;;3.73;;
2650;SDS011;1335;48.180;16.342;2023-10-13T09:19:42;5.00;;;4.10;;
2650;SDS011;1335;48.180;16.342;2023-10-13T09:22:19;4.70;;;3.53;;
2650;SDS011;1335;48.180;16.342;2023-10-13T09:24:51;8.40;;;4.10;;
2650;SDS011;1335;48.180;16.342;2023-10-13T09:27:25;4.50;;;3.80;;
2650;SDS011;1335;48.180;16.342;2023-10-13T09:29:59;7.73;;;3.83;;
2650;SDS011;1335;48.180;16.342;2023-10-13T09:32:35;7.57;;;4.00;;
2650;SDS011;1335;48.180;16.342;2023-10-13T09:35:11;5.43;;;3.63;;
2650;SDS011;1335;48.180;16.342;2023-10-13T09:37:44;5.03;;;4.07;;
2650;SDS011;1335;48.180;16.342;2023-10-13T09:40:12;3.83;;;3.30;;
2650;SDS011;1335;48.180;16.342;2023-10-13T09:42:53;5.90;;;4.17;;
2650;SDS011;1335;48.180;16.342;2023-10-13T09:45:23;5.63;;;3.20;;
2650;SDS011;1335;48.180;16.342;2023-10-13T09:47:52;4.37;;;3.73;;
2650;SDS011;1335;48.180;16.342;2023-10-13T09:50:19;6.20;;;3.77;;
2650;SDS011;1335;48.180;16.342;2023-10-13T09:52:50;4.13;;;3.73;;
2650;SDS011;1335;48.180;16.342;2023-10-13T09:55:21;5.97;;;3.60;;
2650;SDS011;1335;48.180;16.342;2023-10-13T09:57:51;10.63;;;3.73;;
2650;SDS011;1335;48.180;16.342;2023-10-13T10:00:24;4.70;;;3.13;;
2650;SDS011;1335;48.180;16.342;2023-10-13T10:03:09;6.40;;;3.87;;
2650;SDS011;1335;48.180;16.342;2023-10-13T10:05:54;3.77;;;3.00;;
2650;SDS011;1335;48.180;16.342;2023-10-13T10:08:28;5.67;;;3.00;;
2650;SDS011;1335;48.180;16.342;2023-10-13T10:11:00;10.20;;;3.97;;
2650;SDS011;1335;48.180;16.342;2023-10-13T10:13:32;4.80;;;4.03;;
2650;SDS011;1335;48.180;16.342;2023-10-13T10:16:08;9.97;;;3.93;;
2650;SDS011;1335;48.180;16.342;2023-10-13T10:18:40;8.67;;;3.67;;
2650;SDS011;1335;48.180;16.342;2023-10-13T10:21:08;4.93;;;3.67;;
2650;SDS011;1335;48.180;16.342;2023-10-13T10:23:36;9.83;;;4.50;;
2650;SDS011;1335;48.180;16.342;2023-10-13T10:26:11;7.73;;;3.10;;
2650;SDS011;1335;48.180;16.342;2023-10-13T10:28:41;7.70;;;2.97;;
2650;SDS011;1335;48.180;16.342;2023-10-13T10:31:10;3.83;;;3.07;;
2650;SDS011;1335;48.180;16.342;2023-10-13T10:33:40;7.23;;;3.37;;
2650;SDS011;1335;48.180;16.342;2023-10-13T10:36:08;7.10;;;3.37;;
2650;SDS011;1335;48.180;16.342;2023-10-13T10:38:51;7.90;;;3.03;;
2650;SDS011;1335;48.180;16.342;2023-10-13T10:41:24;9.10;;;3.93;;
2650;SDS011;1335;48.180;16.342;2023-10-13T10:43:54;8.70;;;3.20;;
2650;SDS011;1335;48.180;16.342;2023-10-13T10:46:26;4.80;;;3.70;;
2650;SDS011;1335;48.180;16.342;2023-10-13T10:49:03;9.27;;;3.60;;
2650;SDS011;1335;48.180;16.342;2023-10-13T10:51:33;9.03;;;3.60;;
2650;SDS011;1335;48.180;16.342;2023-10-13T10:54:17;6.67;;;3.43;;
2650;SDS011;1335;48.180;16.342;2023-10-13T10:56:45;7.47;;;4.10;;
2650;SDS011;1335;48.180;16.342;2023-10-13T10:59:18;3.53;;;3.23;;
2650;SDS011;1335;48.180;16.342;2023-10-13T11:01:51;5.17;;;3.07;;
2650;SDS011;1335;48.180;16.342;2023-10-13T11:04:18;7.93;;;3.60;;
2650;SDS011;1335;48.180;16.342;2023-10-13T11:06:58;5.50;;;3.43;;
2650;SDS011;1335;48.180;16.342;2023-10-13T11:09:26;7.57;;;3.47;;
2650;SDS011;1335;48.180;16.342;2023-10-13T11:11:57;7.33;;;3.70;;
2650;SDS011;1335;48.180;16.342;2023-10-13T11:14:39;6.53;;;4.10;;
2650;SDS011;1335;48.180;16.342;2023-10-13T11:17:08;6.90;;;3.70;;
2650;SDS011;1335;48.180;16.342;2023-10-13T11:19:46;5.80;;;3.43;;
2650;SDS011;1335;48.180;16.342;2023-10-13T11:22:13;6.73;;;3.47;;
2650;SDS011;1335;48.180;16.342;2023-10-13T11:25:06;7.20;;;3.53;;
2650;SDS011;1335;48.180;16.342;2023-10-13T11:27:36;4.60;;;3.10;;
2650;SDS011;1335;48.180;16.342;2023-10-13T11:30:17;4.97;;;3.37;;
2650;SDS011;1335;48.180;16.342;2023-10-13T11:32:56;7.30;;;3.23;;
2650;SDS011;1335;48.180;16.342;2023-10-13T11:35:23;4.63;;;3.30;;
2650;SDS011;1335;48.180;16.342;2023-10-13T11:37:54;5.10;;;3.80;;
2650;SDS011;1335;48.180;16.342;2023-10-13T11:40:30;6.43;;;3.60;;
2650;SDS011;1335;48.180;16.342;2023-10-13T11:43:11;3.97;;;3.33;;
2650;SDS011;1335;48.180;16.342;2023-10-13T11:45:40;7.90;;;4.43;;
2650;SDS011;1335;48.180;16.342;2023-10-13T11:48:20;7.40;;;4.63;;
2650;SDS011;1335;48.180;16.342;2023-10-13T11:50:59;5.20;;;3.60;;
2650;SDS011;1335;48.180;16.342;2023-10-13T11:53:31;9.23;;;3.90;;
2650;SDS011;1335;48.180;16.342;2023-10-13T11:56:00;11.33;;;3.47;;
2650;SDS011;1335;48.180;16.342;2023-10-13T11:58:33;6.90;;;3.27;;
2650;SDS011;1335;48.180;16.342;2023-10-13T12:01:00;3.40;;;3.00;;
2650;SDS011;1335;48.180;16.342;2023-10-13T12:03:45;6.33;;;3.60;;
2650;SDS011;1335;48.180;16.342;2023-10-13T12:06:31;5.23;;;3.17;;
2650;SDS011;1335;48.180;16.342;2023-10-13T12:09:00;9.00;;;3.53;;
2650;SDS011;1335;48.180;16.342;2023-10-13T12:11:40;5.23;;;3.07;;
2650;SDS011;1335;48.180;16.342;2023-10-13T12:14:09;6.03;;;3.60;;
2650;SDS011;1335;48.180;16.342;2023-10-13T12:16:44;8.30;;;4.10;;
2650;SDS011;1335;48.180;16.342;2023-10-13T12:19:14;7.27;;;3.60;;
2650;SDS011;1335;48.180;16.342;2023-10-13T12:21:42;7.13;;;3.37;;
2650;SDS011;1335;48.180;16.342;2023-10-13T12:24:10;7.57;;;4.10;;
2650;SDS011;1335;48.180;16.342;2023-10-13T12:26:48;4.80;;;3.30;;
2650;SDS011;1335;48.180;16.342;2023-10-13T12:29:22;8.90;;;3.60;;
2650;SDS011;1335;48.180;16.342;2023-10-13T12:31:53;6.10;;;3.40;;
2650;SDS011;1335;48.180;16.342;2023-10-13T12:34:33;7.10;;;3.27;;
2650;SDS011;1335;48.180;16.342;2023-10-13T12:37:22;5.07;;;3.33;;
2650;SDS011;1335;48.180;16.342;2023-10-13T12:40:16;5.67;;;3.63;;
2650;SDS011;1335;48.180;16.342;2023-10-13T12:43:02;5.60;;;4.30;;
2650;SDS011;1335;48.180;16.342;2023-10-13T12:45:48;7.10;;;3.10;;
2650;SDS011;1335;48.180;16.342;2023-10-13T12:48:33;4.43;;;3.43;;
2650;SDS011;1335;48.180;16.342;2023-10-13T12:51:29;5.97;;;4.13;;
2650;SDS011;1335;48.180;16.342;2023-10-13T12:54:17;5.93;;;3.83;;
2650;SDS011;1335;48.180;16.342;2023-10-13T12:56:48;6.10;;;4.03;;
2650;SDS011;1335;48.180;16.342;2023-10-13T12:59:23;8.33;;;4.87;;
2650;SDS011;1335;48.180;16.342;2023-10-13T13:01:52;8.97;;;4.30;;
2650;SDS011;1335;48.180;16.342;2023-10-13T13:04:19;6.20;;;3.30;;
2650;SDS011;1335;48.180;16.342;2023-10-13T13:06:47;3.87;;;3.47;;
2650;SDS011;1335;48.180;16.342;2023-10-13T13:09:14;6.53;;;3.73;;
2650;SDS011;1335;48.180;16.342;2023-10-13T13:11:50;5.60;;;3.70;;
2650;SDS011;1335;48.180;16.342;2023-10-13T13:14:23;5.83;;;3.37;;
2650;SDS011;1335;48.180;16.342;2023-10-13T13:16:54;4.23;;;3.43;;
2650;SDS011;1335;48.180;16.342;2023-10-13T13:19:26;6.33;;;4.00;;
2650;SDS011;1335;48.180;16.342;2023-10-13T13:21:53;6.00;;;3.73;;
2650;SDS011;1335;48.180;16.342;2023-10-13T13:24:20;5.13;;;3.60;;
2650;SDS011;1335;48.180;16.342;2023-10-13T13:26:49;5.50;;;3.40;;
2650;SDS011;1335;48.180;16.342;2023-10-13T13:29:20;7.93;;;3.50;;
2650;SDS011;1335;48.180;16.342;2023-10-13T13:31:48;4.80;;;3.50;;
2650;SDS011;1335;48.180;16.342;2023-10-13T13:34:15;5.90;;;3.57;;
2650;SDS011;1335;48.180;16.342;2023-10-13T13:36:44;4.80;;;3.87;;
2650;SDS011;1335;48.180;16.342;2023-10-13T13:39:17;5.90;;;3.40;;
2650;SDS011;1335;48.180;16.342;2023-10-13T13:41:54;8.23;;;3.90;;
2650;SDS011;1335;48.180;16.342;2023-10-13T13:44:22;8.27;;;4.80;;
2650;SDS011;1335;48.180;16.342;2023-10-13T13:46:55;5.60;;;3.20;;
2650;SDS011;1335;48.180;16.342;2023-10-13T13:49:23;6.13;;;3.90;;
2650;SDS011;1335;48.180;16.342;2023-10-13T13:52:04;3.90;;;2.90;;
2650;SDS011;1335;48.180;16.342;2023-10-13T13:54:32;7.63;;;4.07;;
2650;SDS011;1335;48.180;16.342;2023-10-13T13:56:59;5.70;;;3.70;;
2650;SDS011;1335;48.180;16.342;2023-10-13T13:59:26;6.70;;;3.83;;
2650;SDS011;1335;48.180;16.342;2023-10-13T14:02:00;4.30;;;3.63;;
2650;SDS011;1335;48.180;16.342;2023-10-13T14:04:44;7.40;;;3.50;;
2650;SDS011;1335;48.180;16.342;2023-10-13T14:07:11;5.47;;;3.37;;
2650;SDS011;1335;48.180;16.342;2023-10-13T14:09:40;6.43;;;3.53;;
2650;SDS011;1335;48.180;16.342;2023-10-13T14:12:09;5.70;;;3.63;;
2650;SDS011;1335;48.180;16.342;2023-10-13T14:14:54;6.97;;;4.10;;
2650;SDS011;1335;48.180;16.342;2023-10-13T14:17:23;12.17;;;5.73;;
2650;SDS011;1335;48.180;16.342;2023-10-13T14:19:54;8.63;;;3.57;;
2650;SDS011;1335;48.180;16.342;2023-10-13T14:22:21;7.63;;;3.20;;
2650;SDS011;1335;48.180;16.342;2023-10-13T14:24:50;4.50;;;3.50;;
2650;SDS011;1335;48.180;16.342;2023-10-13T14:27:20;4.20;;;3.63;;
2650;SDS011;1335;48.180;16.342;2023-10-13T14:29:48;7.47;;;4.50;;
2650;SDS011;1335;48.180;16.342;2023-10-13T14:32:18;5.93;;;4.10;;
2650;SDS011;1335;48.180;16.342;2023-10-13T14:34:51;7.10;;;3.67;;
2650;SDS011;1335;48.180;16.342;2023-10-13T14:37:21;8.90;;;3.00;;
2650;SDS011;1335;48.180;16.342;2023-10-13T14:39:54;6.17;;;4.50;;
2650;SDS011;1335;48.180;16.342;2023-10-13T14:42:22;3.83;;;3.13;;
2650;SDS011;1335;48.180;16.342;2023-10-13T14:44:49;6.03;;;3.47;;
2650;SDS011;1335;48.180;16.342;2023-10-13T14:47:20;4.77;;;3.60;;
2650;SDS011;1335;48.180;16.342;2023-10-13T14:49:51;4.93;;;4.10;;
2650;SDS011;1335;48.180;16.342;2023-10-13T14:52:20;11.70;;;4.23;;
2650;SDS011;1335;48.180;16.342;2023-10-13T14:54:48;4.87;;;3.57;;
2650;SDS011;1335;48.180;16.342;2023-10-13T14:57:20;6.90;;;3.60;;
2650;SDS011;1335;48.180;16.342;2023-10-13T14:59:49;5.80;;;3.43;;
2650;SDS011;1335;48.180;16.342;2023-10-13T15:02:17;7.20;;;4.40;;
2650;SDS011;1335;48.180;16.342;2023-10-13T15:04:44;7.10;;;3.60;;
2650;SDS011;1335;48.180;16.342;2023-10-13T15:07:14;4.80;;;3.40;;
2650;SDS011;1335;48.180;16.342;2023-10-13T15:09:43;10.40;;;3.80;;
2650;SDS011;1335;48.180;16.342;2023-10-13T15:12:10;9.17;;;4.07;;
2650;SDS011;1335;48.180;16.342;2023-10-13T15:14:37;6.40;;;3.83;;
2650;SDS011;1335;48.180;16.342;2023-10-13T15:17:07;6.57;;;3.87;;
2650;SDS011;1335;48.180;16.342;2023-10-13T15:19:35;6.30;;;3.87;;
2650;SDS011;1335;48.180;16.342;2023-10-13T15:22:04;7.60;;;3.90;;
2650;SDS011;1335;48.180;16.342;2023-10-13T15:24:33;6.37;;;3.50;;
2650;SDS011;1335;48.180;16.342;2023-10-13T15:27:09;5.27;;;3.47;;
2650;SDS011;1335;48.180;16.342;2023-10-13T15:29:37;6.37;;;3.93;;
2650;SDS011;1335;48.180;16.342;2023-10-13T15:32:04;7.13;;;3.90;;
2650;SDS011;1335;48.180;16.342;2023-10-13T15:34:45;7.40;;;3.23;;
2650;SDS011;1335;48.180;16.342;2023-10-13T15:37:13;6.70;;;3.53;;
2650;SDS011;1335;48.180;16.342;2023-10-13T15:39:42;4.80;;;3.20;;
2650;SDS011;1335;48.180;16.342;2023-10-13T15:42:09;9.83;;;4.30;;